KCEW

Bob Sikes Airport

Crestview, Florida, USA
METAR KCEW 241953Z AUTO 19012G18KT 10SM SCT065 26/17 A3011 RMK AO2 SLP194 T02560172 $
Observed Flight Rules
Feb-24 @ 19:53 UTC (20 minutes ago) Visual Flight Rules
Wind Visibility Clouds
190° at 12 knots
 Gusting to 18 knots
10 miles
  • Scattered at 6,500' AGL
Temperatures Readings
Current 26°C / 79°F
Dewpoint 17°C / 63°F
Humidity 58%
Altimeter 30.11" Hg
Pressure 1019.4 hPa
Elevation 55
METAR KCEW 241953Z AUTO 19012G18KT 10SM SCT065 26/17 A3011 RMK AO2 SLP194 T02560172 $
Observed Flight Rules
Feb-24 @ 19:53 UTC
(20 minutes ago)
VFR
Wind Visibility
190° at 12 knots
 Gusting to 18 knots
10 miles
Clouds
  • Scattered at 6,500' AGL
Temperature Dewpoint
26°C / 79°F 17°C / 63°F
Humidity Altimeter Pressure
58% 30.11" Hg 1019.4 hPa